Time;durP1;ratioP1;P1;durP2;ratioP2;P2;SDS_P1;SDS_P2;PMS_P1;PMS_P2;Temp;Humidity;BMP_temperature;BMP_pressure;BME280_temperature;BME280_humidity;BME280_pressure;Samples;Min_cycle;Max_cycle;Signal;HPM_P1;HPM_P2
2023/04/23 00:00:00;;;;;;;74.15;29.27;;;;;;;;;;5051464;28;20115;-79
2023/04/23 00:02:26;;;;;;;73.05;27.83;;;;;;;;;;5045891;28;20497;-79
2023/04/23 00:04:53;;;;;;;80.35;29.52;;;;;;;;;;5050508;28;20124;-79
2023/04/23 00:07:20;;;;;;;73.85;29.88;;;;;;;;;;5032171;28;20090;-79
2023/04/23 00:09:47;;;;;;;82.25;31.10;;;;;;;;;;5052470;28;20052;-79
2023/04/23 00:12:13;;;;;;;81.55;30.50;;;;;;;;;;5067044;28;20048;-78
2023/04/23 00:14:39;;;;;;;76.47;31.40;;;;;;;;;;5054740;28;20107;-78
2023/04/23 00:17:05;;;;;;;86.95;34.50;;;;;;;;;;5055443;28;20489;-78
2023/04/23 00:19:31;;;;;;;93.53;33.45;;;;;;;;;;5055623;28;20064;-78
2023/04/23 00:21:57;;;;;;;93.43;34.38;;;;;;;;;;5055304;28;20102;-79
2023/04/23 00:24:24;;;;;;;98.53;34.58;;;;;;;;;;5037961;28;20553;-78
2023/04/23 00:26:51;;;;;;;96.80;34.90;;;;;;;;;;5054163;28;20482;-79
2023/04/23 00:29:17;;;;;;;96.82;34.72;;;;;;;;;;5053873;28;20040;-79
2023/04/23 00:31:43;;;;;;;97.93;35.42;;;;;;;;;;5087347;28;20175;-79
2023/04/23 00:34:09;;;;;;;107.13;38.03;;;;;;;;;;5053836;28;20041;-79
2023/04/23 00:36:36;;;;;;;114.03;37.38;;;;;;;;;;5036631;28;20072;-79
2023/04/23 00:39:02;;;;;;;111.65;36.97;;;;;;;;;;5055009;28;20367;-79
2023/04/23 00:41:28;;;;;;;129.75;40.28;;;;;;;;;;5053663;28;20386;-79
2023/04/23 00:43:56;;;;;;;124.90;40.00;;;;;;;;;;5054627;28;20029;-79
2023/04/23 00:46:25;;;;;;;147.30;41.85;;;;;;;;;;5036600;28;20045;-79
2023/04/23 00:48:52;;;;;;;155.38;42.65;;;;;;;;;;5053427;28;20045;-79
2023/04/23 00:51:18;;;;;;;160.57;45.47;;;;;;;;;;5053407;28;20529;-79
2023/04/23 00:53:44;;;;;;;154.30;46.20;;;;;;;;;;5053479;28;20052;-79
2023/04/23 00:56:11;;;;;;;160.25;46.55;;;;;;;;;;5054588;28;20464;-79
2023/04/23 00:58:37;;;;;;;165.63;49.15;;;;;;;;;;5054309;28;20044;-79
2023/04/23 01:01:04;;;;;;;171.77;48.42;;;;;;;;;;5049631;28;20038;-79
2023/04/23 01:03:31;;;;;;;188.13;50.10;;;;;;;;;;5049982;28;20043;-79
2023/04/23 01:05:57;;;;;;;178.88;50.33;;;;;;;;;;5052832;28;20055;-79
2023/04/23 01:08:25;;;;;;;169.38;48.33;;;;;;;;;;5053828;28;20076;-79
2023/04/23 01:10:51;;;;;;;179.95;51.05;;;;;;;;;;5054351;28;20083;-79
2023/04/23 01:13:17;;;;;;;170.77;50.72;;;;;;;;;;5053805;28;20048;-79
2023/04/23 01:15:45;;;;;;;204.13;56.25;;;;;;;;;;5053097;28;20044;-78
2023/04/23 01:18:12;;;;;;;213.25;57.22;;;;;;;;;;5052647;28;20037;-79
2023/04/23 01:20:38;;;;;;;231.32;59.47;;;;;;;;;;5052986;28;20497;-79
2023/04/23 01:23:04;;;;;;;247.23;56.47;;;;;;;;;;5052671;28;20037;-79
2023/04/23 01:25:30;;;;;;;255.45;61.30;;;;;;;;;;5052380;28;20101;-77
2023/04/23 01:27:57;;;;;;;298.42;64.55;;;;;;;;;;5053864;28;20171;-79
2023/04/23 01:30:25;;;;;;;268.70;61.22;;;;;;;;;;5052373;28;20069;-79
2023/04/23 01:32:52;;;;;;;272.05;63.85;;;;;;;;;;5052475;28;20048;-79
2023/04/23 01:35:18;;;;;;;286.50;63.40;;;;;;;;;;5035710;28;20119;-79
2023/04/23 01:37:46;;;;;;;248.15;62.25;;;;;;;;;;5036043;28;20044;-79
2023/04/23 01:40:12;;;;;;;267.50;63.05;;;;;;;;;;5052335;28;20109;-79
2023/04/23 01:42:38;;;;;;;260.90;66.00;;;;;;;;;;5053267;28;20044;-79
2023/04/23 01:45:06;;;;;;;275.15;64.40;;;;;;;;;;5052035;28;20041;-79
2023/04/23 01:47:33;;;;;;;230.45;62.20;;;;;;;;;;5085413;28;20067;-79
2023/04/23 01:49:59;;;;;;;285.17;66.32;;;;;;;;;;5052391;28;20611;-79
2023/04/23 01:52:25;;;;;;;252.75;63.85;;;;;;;;;;5052904;28;20036;-79
2023/04/23 01:54:51;;;;;;;249.38;65.57;;;;;;;;;;5051942;28;20072;-79
2023/04/23 01:57:22;;;;;;;243.75;62.00;;;;;;;;;;5052257;28;20106;-79
2023/04/23 01:59:49;;;;;;;306.92;66.55;;;;;;;;;;5051999;28;20041;-79
2023/04/23 02:02:15;;;;;;;242.68;61.67;;;;;;;;;;5046764;28;20497;-79
2023/04/23 02:04:43;;;;;;;265.30;63.20;;;;;;;;;;5051894;28;20065;-79
2023/04/23 02:07:10;;;;;;;289.08;62.78;;;;;;;;;;5060998;28;20401;-79
2023/04/23 02:09:36;;;;;;;305.00;65.70;;;;;;;;;;5050417;28;20508;-79
2023/04/23 02:12:02;;;;;;;293.40;64.35;;;;;;;;;;5051894;28;20048;-79
2023/04/23 02:14:29;;;;;;;330.38;63.80;;;;;;;;;;5052589;28;20443;-79
2023/04/23 02:16:56;;;;;;;279.60;62.42;;;;;;;;;;5052199;28;20052;-79
2023/04/23 02:19:22;;;;;;;343.00;64.80;;;;;;;;;;5051592;28;20056;-79
2023/04/23 02:21:48;;;;;;;402.55;62.97;;;;;;;;;;5051613;28;20064;-79
2023/04/23 02:24:14;;;;;;;430.17;66.15;;;;;;;;;;5053084;28;20040;-79
2023/04/23 02:26:41;;;;;;;431.48;63.83;;;;;;;;;;5051257;28;20045;-79
2023/04/23 02:29:07;;;;;;;432.90;62.90;;;;;;;;;;5085126;28;20080;-79
2023/04/23 02:31:33;;;;;;;419.42;68.25;;;;;;;;;;5051121;28;20108;-79
2023/04/23 02:33:59;;;;;;;603.55;71.38;;;;;;;;;;5052694;28;20466;-79
2023/04/23 02:36:27;;;;;;;578.45;71.68;;;;;;;;;;5050985;28;20052;-79
2023/04/23 02:38:53;;;;;;;464.77;61.75;;;;;;;;;;5051402;28;20048;-79
2023/04/23 02:41:20;;;;;;;1106.47;84.97;;;;;;;;;;5052334;28;20048;-79
2023/04/23 02:43:46;;;;;;;1120.18;79.68;;;;;;;;;;5034751;28;20068;-79
2023/04/23 02:46:12;;;;;;;1233.00;85.70;;;;;;;;;;5067788;28;20041;-79
2023/04/23 02:48:39;;;;;;;1080.22;77.63;;;;;;;;;;5050633;28;20041;-79
2023/04/23 02:51:06;;;;;;;869.97;74.72;;;;;;;;;;5052213;28;20063;-79
2023/04/23 02:53:33;;;;;;;812.72;70.38;;;;;;;;;;5052272;28;20513;-79
2023/04/23 02:56:00;;;;;;;799.15;69.72;;;;;;;;;;5052264;28;20549;-79
2023/04/23 02:58:26;;;;;;;761.53;72.40;;;;;;;;;;5051044;28;20049;-79
2023/04/23 03:00:52;;;;;;;744.55;64.15;;;;;;;;;;5051090;28;20048;-79
2023/04/23 03:03:18;;;;;;;619.50;64.57;;;;;;;;;;5052304;28;20033;-79
2023/04/23 03:05:44;;;;;;;444.67;58.20;;;;;;;;;;5050449;28;20041;-79
2023/04/23 03:08:10;;;;;;;738.88;64.15;;;;;;;;;;5052450;28;20040;-79
2023/04/23 03:10:36;;;;;;;410.45;59.83;;;;;;;;;;5051954;28;20036;-79
2023/04/23 03:13:02;;;;;;;510.60;61.22;;;;;;;;;;5050993;28;20072;-79
2023/04/23 03:15:29;;;;;;;338.85;59.33;;;;;;;;;;5051005;28;20037;-79
2023/04/23 03:17:55;;;;;;;238.73;55.20;;;;;;;;;;5050657;28;20509;-78
2023/04/23 03:20:21;;;;;;;261.50;57.92;;;;;;;;;;5050911;28;20044;-79
2023/04/23 03:22:47;;;;;;;258.35;59.15;;;;;;;;;;5050573;28;20095;-79
2023/04/23 03:25:13;;;;;;;201.15;56.10;;;;;;;;;;5050874;28;20044;-79
2023/04/23 03:27:40;;;;;;;194.65;54.70;;;;;;;;;;5051499;28;20045;-79
2023/04/23 03:30:07;;;;;;;202.68;56.90;;;;;;;;;;5051045;28;20061;-79
2023/04/23 03:32:34;;;;;;;204.10;56.42;;;;;;;;;;5052164;28;20049;-79
2023/04/23 03:35:00;;;;;;;187.68;55.97;;;;;;;;;;5014579;28;20041;-79
2023/04/23 03:37:27;;;;;;;192.70;55.05;;;;;;;;;;5047138;28;20037;-78
2023/04/23 03:39:53;;;;;;;187.77;55.85;;;;;;;;;;5050875;28;20485;-78
2023/04/23 03:42:19;;;;;;;180.13;56.42;;;;;;;;;;5051832;28;20125;-78
2023/04/23 03:44:45;;;;;;;197.90;56.13;;;;;;;;;;5051788;28;20048;-78
2023/04/23 03:47:11;;;;;;;172.35;51.42;;;;;;;;;;5085221;28;20124;-78
2023/04/23 03:49:37;;;;;;;176.38;54.10;;;;;;;;;;5057297;28;20083;-78
2023/04/23 03:52:03;;;;;;;166.73;53.13;;;;;;;;;;5055114;28;20482;-78
2023/04/23 03:54:29;;;;;;;171.52;54.83;;;;;;;;;;5054679;28;20083;-79
2023/04/23 03:56:56;;;;;;;184.18;55.67;;;;;;;;;;5055651;28;20045;-78
2023/04/23 03:59:22;;;;;;;166.25;54.13;;;;;;;;;;5038193;28;20124;-78
2023/04/23 04:01:49;;;;;;;165.90;52.30;;;;;;;;;;5049314;28;20434;-78
2023/04/23 04:04:15;;;;;;;173.35;55.33;;;;;;;;;;5054501;28;20513;-78
2023/04/23 04:06:41;;;;;;;165.60;54.65;;;;;;;;;;5052045;28;20139;-79
2023/04/23 04:09:07;;;;;;;171.68;54.80;;;;;;;;;;5062982;28;20052;-78
2023/04/23 04:11:33;;;;;;;183.35;54.72;;;;;;;;;;5053851;28;20112;-79
2023/04/23 04:13:59;;;;;;;171.07;53.35;;;;;;;;;;5053383;28;20136;-79
2023/04/23 04:16:25;;;;;;;174.45;55.10;;;;;;;;;;5055365;28;20044;-79
2023/04/23 04:18:52;;;;;;;174.05;53.70;;;;;;;;;;5053923;28;20485;-78
2023/04/23 04:21:18;;;;;;;172.80;54.45;;;;;;;;;;5055054;28;20037;-78
2023/04/23 04:23:44;;;;;;;163.05;53.65;;;;;;;;;;5054812;28;20121;-78
2023/04/23 04:26:11;;;;;;;156.88;52.67;;;;;;;;;;5054667;28;20052;-78
2023/04/23 04:28:38;;;;;;;176.63;53.13;;;;;;;;;;5055011;28;20040;-79
2023/04/23 04:31:05;;;;;;;153.05;51.17;;;;;;;;;;5053352;28;20056;-79
2023/04/23 04:33:32;;;;;;;140.35;48.63;;;;;;;;;;5053964;28;20512;-79
2023/04/23 04:35:59;;;;;;;154.73;50.45;;;;;;;;;;5053396;28;20048;-79
2023/04/23 04:38:25;;;;;;;145.27;49.20;;;;;;;;;;5054926;28;20087;-79
2023/04/23 04:40:57;;;;;;;135.27;46.88;;;;;;;;;;5054674;28;20547;-79
2023/04/23 04:43:23;;;;;;;134.02;47.35;;;;;;;;;;5053744;28;20051;-79
2023/04/23 04:45:50;;;;;;;131.43;46.83;;;;;;;;;;5053164;28;20494;-78
2023/04/23 04:48:16;;;;;;;124.43;46.25;;;;;;;;;;5053805;28;20052;-79
2023/04/23 04:50:43;;;;;;;116.25;44.30;;;;;;;;;;5054969;28;20122;-78
2023/04/23 04:53:09;;;;;;;126.68;45.47;;;;;;;;;;5053232;28;20073;-79
2023/04/23 04:55:35;;;;;;;126.72;46.17;;;;;;;;;;5054793;28;20068;-79
2023/04/23 04:58:01;;;;;;;108.85;44.50;;;;;;;;;;5054526;28;20041;-79
2023/04/23 05:00:28;;;;;;;125.28;45.22;;;;;;;;;;5054785;28;20041;-79
2023/04/23 05:02:55;;;;;;;119.97;44.63;;;;;;;;;;5045811;28;20080;-79
2023/04/23 05:05:22;;;;;;;126.85;47.20;;;;;;;;;;5055268;28;20516;-79
2023/04/23 05:07:48;;;;;;;136.80;48.47;;;;;;;;;;5054562;28;20045;-79
2023/04/23 05:10:14;;;;;;;128.43;46.65;;;;;;;;;;5053517;28;20040;-79
2023/04/23 05:12:41;;;;;;;132.57;47.25;;;;;;;;;;5054642;28;20439;-79
2023/04/23 05:15:08;;;;;;;138.20;47.90;;;;;;;;;;5053500;28;20041;-79
2023/04/23 05:17:35;;;;;;;139.13;49.58;;;;;;;;;;5053520;28;20052;-79
2023/04/23 05:20:01;;;;;;;123.93;46.17;;;;;;;;;;5054933;28;20029;-79
2023/04/23 05:22:27;;;;;;;120.22;47.58;;;;;;;;;;5054749;28;20045;-79
2023/04/23 05:24:53;;;;;;;130.40;49.03;;;;;;;;;;5053253;28;20116;-79
2023/04/23 05:27:19;;;;;;;122.35;47.00;;;;;;;;;;5052790;28;20099;-79
2023/04/23 05:29:48;;;;;;;128.63;48.28;;;;;;;;;;5054459;28;20112;-79
2023/04/23 05:32:14;;;;;;;119.10;47.65;;;;;;;;;;5053787;28;20041;-80
2023/04/23 05:34:41;;;;;;;121.13;47.55;;;;;;;;;;5052954;28;20115;-79
2023/04/23 05:37:10;;;;;;;121.05;47.45;;;;;;;;;;5054101;28;20102;-79
2023/04/23 05:39:36;;;;;;;109.90;43.42;;;;;;;;;;5053518;28;20037;-79
2023/04/23 05:42:02;;;;;;;105.75;42.63;;;;;;;;;;5055647;28;20041;-79
2023/04/23 05:44:29;;;;;;;105.88;44.45;;;;;;;;;;5039712;28;20045;-80
2023/04/23 05:46:58;;;;;;;111.93;44.92;;;;;;;;;;5032243;28;20398;-79
2023/04/23 05:49:26;;;;;;;110.38;45.20;;;;;;;;;;5048742;28;20489;-79
2023/04/23 05:51:52;;;;;;;111.13;46.63;;;;;;;;;;5053331;28;20036;-80
2023/04/23 05:54:18;;;;;;;108.05;45.60;;;;;;;;;;5052104;28;20040;-80
2023/04/23 05:56:44;;;;;;;99.03;42.72;;;;;;;;;;5052995;28;20069;-80
2023/04/23 05:59:11;;;;;;;98.43;43.25;;;;;;;;;;5051725;28;20119;-80
2023/04/23 06:01:37;;;;;;;101.50;44.65;;;;;;;;;;5043796;28;20972;-80
2023/04/23 06:04:03;;;;;;;106.40;45.83;;;;;;;;;;5051648;28;20107;-79
2023/04/23 06:06:30;;;;;;;88.55;42.05;;;;;;;;;;5053087;28;20041;-80
2023/04/23 06:08:56;;;;;;;78.55;39.95;;;;;;;;;;5052712;28;20033;-80
2023/04/23 06:11:22;;;;;;;67.78;36.55;;;;;;;;;;5051122;28;20048;-81
2023/04/23 06:13:48;;;;;;;60.45;33.97;;;;;;;;;;5053122;28;20033;-81
2023/04/23 06:16:14;;;;;;;60.97;34.63;;;;;;;;;;5051240;28;20076;-80
2023/04/23 06:18:40;;;;;;;60.22;33.70;;;;;;;;;;5052710;28;20073;-80
2023/04/23 06:21:06;;;;;;;58.90;33.58;;;;;;;;;;5052565;28;20052;-80
2023/04/23 06:23:34;;;;;;;56.58;32.75;;;;;;;;;;5035258;28;20573;-81
2023/04/23 06:26:00;;;;;;;53.30;31.98;;;;;;;;;;5052033;28;20528;-81
2023/04/23 06:28:26;;;;;;;50.90;31.65;;;;;;;;;;5051469;28;20043;-81
2023/04/23 06:30:52;;;;;;;50.28;31.38;;;;;;;;;;5034895;28;20124;-81
2023/04/23 06:33:18;;;;;;;44.90;29.02;;;;;;;;;;5051072;28;20048;-81
2023/04/23 06:35:45;;;;;;;43.30;27.65;;;;;;;;;;5051625;28;20444;-80
2023/04/23 06:38:11;;;;;;;47.80;30.02;;;;;;;;;;5050915;28;20049;-81
2023/04/23 06:40:37;;;;;;;43.55;28.20;;;;;;;;;;5052250;28;20043;-81
2023/04/23 06:43:04;;;;;;;41.83;28.77;;;;;;;;;;5050819;28;20041;-82
2023/04/23 06:45:34;;;;;;;41.05;27.38;;;;;;;;;;5051321;28;20055;-81
2023/04/23 06:48:00;;;;;;;39.08;26.92;;;;;;;;;;5051038;28;20076;-82
2023/04/23 06:50:26;;;;;;;38.72;26.80;;;;;;;;;;5051223;28;20068;-82
2023/04/23 06:52:53;;;;;;;37.58;26.45;;;;;;;;;;5052405;28;20078;-82
2023/04/23 06:55:20;;;;;;;39.33;26.60;;;;;;;;;;5051754;28;20037;-81
2023/04/23 06:57:46;;;;;;;37.75;25.90;;;;;;;;;;5052323;28;20041;-82
2023/04/23 07:00:13;;;;;;;35.90;25.67;;;;;;;;;;5051898;28;20045;-82
2023/04/23 07:02:39;;;;;;;38.92;26.05;;;;;;;;;;5023817;28;20037;-82
2023/04/23 07:05:05;;;;;;;37.88;26.98;;;;;;;;;;5051827;28;20082;-82
2023/04/23 07:07:31;;;;;;;36.47;26.48;;;;;;;;;;5052100;28;20061;-82
2023/04/23 07:09:57;;;;;;;34.30;24.88;;;;;;;;;;5052156;28;20041;-82
2023/04/23 07:12:24;;;;;;;33.90;25.25;;;;;;;;;;5050438;28;20033;-81
2023/04/23 07:14:52;;;;;;;36.13;24.95;;;;;;;;;;5050959;28;20370;-82
2023/04/23 07:17:18;;;;;;;33.58;24.98;;;;;;;;;;5050632;28;20371;-82
2023/04/23 07:19:44;;;;;;;32.05;23.40;;;;;;;;;;5050771;28;20045;-82
2023/04/23 07:22:10;;;;;;;30.58;23.45;;;;;;;;;;5051264;28;20049;-82
2023/04/23 07:24:36;;;;;;;31.38;23.15;;;;;;;;;;5055059;28;20120;-82
2023/04/23 07:27:02;;;;;;;32.17;23.50;;;;;;;;;;5054518;28;20049;-82
2023/04/23 07:29:28;;;;;;;28.50;21.67;;;;;;;;;;5054550;28;20407;-82
2023/04/23 07:31:55;;;;;;;26.65;21.40;;;;;;;;;;5056005;28;20044;-82
2023/04/23 07:34:21;;;;;;;26.95;21.15;;;;;;;;;;5055602;28;20049;-82
2023/04/23 07:36:47;;;;;;;25.77;20.63;;;;;;;;;;5056168;28;20041;-82
2023/04/23 07:39:13;;;;;;;24.70;20.02;;;;;;;;;;5054151;28;20044;-82
2023/04/23 07:41:39;;;;;;;26.80;20.20;;;;;;;;;;5055881;28;20367;-82
2023/04/23 07:44:05;;;;;;;25.77;19.65;;;;;;;;;;5056125;28;20480;-82
2023/04/23 07:46:31;;;;;;;24.98;19.15;;;;;;;;;;5055817;28;20536;-82
2023/04/23 07:48:58;;;;;;;23.38;19.73;;;;;;;;;;5054755;28;20126;-82
2023/04/23 07:51:25;;;;;;;23.27;18.73;;;;;;;;;;5053985;28;20044;-82
2023/04/23 07:53:53;;;;;;;22.80;19.55;;;;;;;;;;5054668;28;20371;-82
2023/04/23 07:56:20;;;;;;;24.40;19.00;;;;;;;;;;5037401;28;20048;-83
2023/04/23 07:58:47;;;;;;;22.00;18.13;;;;;;;;;;5054167;28;20044;-82
2023/04/23 08:01:13;;;;;;;22.45;18.65;;;;;;;;;;5047518;28;20124;-82
2023/04/23 08:03:39;;;;;;;21.60;17.58;;;;;;;;;;5037769;28;20045;-82
2023/04/23 08:06:05;;;;;;;20.13;17.25;;;;;;;;;;5055381;28;20072;-83
2023/04/23 08:08:31;;;;;;;20.10;16.60;;;;;;;;;;5053539;28;20040;-82
2023/04/23 08:10:57;;;;;;;20.65;16.65;;;;;;;;;;5055285;28;20040;-83
2023/04/23 08:13:23;;;;;;;18.70;16.35;;;;;;;;;;5053371;28;20047;-82
2023/04/23 08:15:50;;;;;;;19.60;16.17;;;;;;;;;;5054392;28;20496;-83
2023/04/23 08:18:17;;;;;;;20.20;16.05;;;;;;;;;;5053745;28;20513;-82
2023/04/23 08:20:43;;;;;;;17.40;14.73;;;;;;;;;;5053878;28;20045;-82
2023/04/23 08:23:09;;;;;;;18.67;14.75;;;;;;;;;;5054038;28;20134;-82
2023/04/23 08:25:35;;;;;;;20.83;15.68;;;;;;;;;;5054610;28;20040;-82
2023/04/23 08:28:02;;;;;;;17.25;14.60;;;;;;;;;;5053238;28;20056;-82
2023/04/23 08:30:28;;;;;;;17.52;14.07;;;;;;;;;;5036832;28;20116;-82
2023/04/23 08:32:54;;;;;;;15.35;12.68;;;;;;;;;;5036366;28;20045;-81
2023/04/23 08:35:21;;;;;;;15.48;11.50;;;;;;;;;;5053335;28;20053;-80
2023/04/23 08:37:47;;;;;;;15.27;11.68;;;;;;;;;;5054628;28;20037;-81
2023/04/23 08:40:13;;;;;;;14.18;12.07;;;;;;;;;;5054798;28;20072;-81
2023/04/23 08:42:57;;;;;;;13.77;11.13;;;;;;;;;;5054800;28;20363;-81
2023/04/23 08:45:23;;;;;;;14.55;11.38;;;;;;;;;;5052864;28;20048;-82
2023/04/23 08:47:50;;;;;;;12.88;10.40;;;;;;;;;;5053404;28;20119;-81
2023/04/23 08:50:18;;;;;;;12.85;9.93;;;;;;;;;;5054130;28;20033;-82
2023/04/23 08:52:54;;;;;;;13.32;9.48;;;;;;;;;;5054542;28;20382;-81
2023/04/23 08:55:21;;;;;;;13.30;9.27;;;;;;;;;;5052799;28;20086;-82
2023/04/23 08:57:47;;;;;;;16.17;9.90;;;;;;;;;;5053400;28;20045;-81
2023/04/23 09:00:14;;;;;;;11.80;8.60;;;;;;;;;;5053111;28;20482;-81
2023/04/23 09:02:41;;;;;;;10.30;7.80;;;;;;;;;;5043568;28;20068;-81
2023/04/23 09:05:07;;;;;;;9.57;6.88;;;;;;;;;;5052898;28;20044;-81
2023/04/23 09:07:34;;;;;;;11.13;7.30;;;;;;;;;;5052597;28;20037;-81
2023/04/23 09:10:00;;;;;;;9.75;6.00;;;;;;;;;;5052909;28;20041;-81
2023/04/23 09:12:26;;;;;;;9.60;6.55;;;;;;;;;;5053592;28;20044;-81
2023/04/23 09:14:52;;;;;;;11.18;7.10;;;;;;;;;;5053971;28;20095;-81
2023/04/23 09:17:19;;;;;;;10.40;7.15;;;;;;;;;;5053165;28;20067;-81
2023/04/23 09:19:45;;;;;;;9.73;7.00;;;;;;;;;;5053796;28;20115;-81
2023/04/23 09:22:11;;;;;;;13.45;7.03;;;;;;;;;;5053034;28;20394;-81
2023/04/23 09:24:42;;;;;;;10.02;7.03;;;;;;;;;;5052429;28;20128;-81
2023/04/23 09:27:08;;;;;;;9.68;6.47;;;;;;;;;;5052514;28;20053;-80
2023/04/23 09:29:34;;;;;;;10.80;6.57;;;;;;;;;;5051870;28;20067;-81
2023/04/23 09:32:06;;;;;;;9.27;5.93;;;;;;;;;;5053920;28;20029;-81
2023/04/23 09:34:34;;;;;;;7.90;6.00;;;;;;;;;;5052440;28;20390;-81
2023/04/23 09:37:00;;;;;;;9.55;6.28;;;;;;;;;;5052455;28;20166;-80
2023/04/23 09:39:26;;;;;;;12.75;6.10;;;;;;;;;;5053224;28;20497;-80
2023/04/23 09:41:53;;;;;;;12.48;6.30;;;;;;;;;;5052475;28;20103;-80
2023/04/23 09:44:21;;;;;;;10.55;6.20;;;;;;;;;;5052074;28;20500;-82
2023/04/23 09:46:47;;;;;;;9.70;5.78;;;;;;;;;;5051584;28;20559;-81
2023/04/23 09:49:14;;;;;;;10.23;5.90;;;;;;;;;;5053575;28;20044;-81
2023/04/23 09:51:41;;;;;;;10.05;6.07;;;;;;;;;;5052966;28;20052;-81
2023/04/23 09:54:13;;;;;;;9.50;5.78;;;;;;;;;;5053318;28;20045;-81
2023/04/23 09:56:40;;;;;;;13.02;5.88;;;;;;;;;;5052170;28;20496;-81
2023/04/23 09:59:25;;;;;;;10.15;5.50;;;;;;;;;;5053108;28;20099;-81
2023/04/23 10:01:52;;;;;;;9.30;4.83;;;;;;;;;;5049433;28;20497;-81
2023/04/23 10:04:22;;;;;;;10.30;5.75;;;;;;;;;;5053363;28;20052;-81
2023/04/23 10:06:48;;;;;;;9.02;5.00;;;;;;;;;;5051696;28;20490;-80
2023/04/23 10:09:15;;;;;;;9.45;4.93;;;;;;;;;;5053291;28;20037;-81
2023/04/23 10:11:41;;;;;;;11.70;4.72;;;;;;;;;;5051679;28;20041;-81
2023/04/23 10:14:08;;;;;;;8.48;4.60;;;;;;;;;;5051579;28;20072;-81
2023/04/23 10:16:34;;;;;;;8.00;4.47;;;;;;;;;;5052903;28;20402;-81
2023/04/23 10:19:01;;;;;;;10.77;4.63;;;;;;;;;;5051917;28;20033;-81
2023/04/23 10:21:29;;;;;;;7.70;3.90;;;;;;;;;;5052809;28;20040;-81
2023/04/23 10:23:56;;;;;;;8.32;3.40;;;;;;;;;;5051880;28;20049;-81
2023/04/23 10:26:23;;;;;;;9.05;3.45;;;;;;;;;;5051269;28;20045;-81
2023/04/23 10:28:50;;;;;;;7.10;3.20;;;;;;;;;;5051361;28;20051;-81
2023/04/23 10:31:19;;;;;;;10.68;3.58;;;;;;;;;;5052558;28;20106;-81
2023/04/23 10:33:49;;;;;;;8.75;3.30;;;;;;;;;;5051181;28;20072;-81
2023/04/23 10:36:16;;;;;;;7.45;3.05;;;;;;;;;;5052306;28;20051;-81
2023/04/23 10:38:43;;;;;;;8.75;3.20;;;;;;;;;;5052897;28;20120;-81
2023/04/23 10:41:10;;;;;;;10.15;3.05;;;;;;;;;;5052481;28;20512;-81
2023/04/23 10:43:36;;;;;;;10.98;3.67;;;;;;;;;;5053102;28;20041;-82
2023/04/23 10:46:02;;;;;;;8.38;3.00;;;;;;;;;;5053440;28;20548;-81
2023/04/23 10:48:28;;;;;;;8.50;2.85;;;;;;;;;;5054329;28;20048;-81
2023/04/23 10:51:01;;;;;;;5.82;2.53;;;;;;;;;;5051709;28;20073;-81
2023/04/23 10:53:30;;;;;;;7.85;2.55;;;;;;;;;;5053377;28;20036;-81
2023/04/23 10:56:06;;;;;;;8.98;2.80;;;;;;;;;;5052454;28;20045;-81
2023/04/23 10:58:51;;;;;;;6.85;2.33;;;;;;;;;;5051736;28;20040;-81
2023/04/23 11:01:18;;;;;;;7.38;2.30;;;;;;;;;;5044533;28;20486;-81
2023/04/23 11:03:44;;;;;;;5.85;2.30;;;;;;;;;;5048707;28;20049;-81
2023/04/23 11:06:14;;;;;;;6.47;2.33;;;;;;;;;;5034661;28;20037;-81
2023/04/23 11:08:51;;;;;;;7.40;2.25;;;;;;;;;;5050689;28;20116;-81
2023/04/23 11:11:17;;;;;;;6.60;2.10;;;;;;;;;;5051270;28;20080;-81
2023/04/23 11:13:53;;;;;;;10.02;2.50;;;;;;;;;;5050821;28;20037;-81
2023/04/23 11:16:23;;;;;;;6.88;2.25;;;;;;;;;;5051094;28;20526;-81
2023/04/23 11:18:56;;;;;;;5.60;2.08;;;;;;;;;;5050567;28;20041;-81
2023/04/23 11:21:22;;;;;;;7.25;2.15;;;;;;;;;;5034219;28;20382;-81
2023/04/23 11:23:48;;;;;;;4.30;1.90;;;;;;;;;;5050552;28;20044;-81
2023/04/23 11:26:17;;;;;;;5.93;2.15;;;;;;;;;;5050519;28;20124;-81
2023/04/23 11:28:44;;;;;;;8.93;2.78;;;;;;;;;;5050565;28;20045;-81
2023/04/23 11:31:10;;;;;;;7.43;1.90;;;;;;;;;;5067592;28;20040;-81
2023/04/23 11:33:38;;;;;;;6.10;1.90;;;;;;;;;;5052014;28;20041;-81
2023/04/23 11:36:04;;;;;;;4.88;1.75;;;;;;;;;;5051837;28;20037;-81
2023/04/23 11:38:33;;;;;;;6.38;1.88;;;;;;;;;;5052160;28;20033;-81
2023/04/23 11:41:04;;;;;;;9.65;2.05;;;;;;;;;;5051670;28;20060;-80
2023/04/23 11:43:30;;;;;;;9.38;1.83;;;;;;;;;;5050758;28;20041;-81
2023/04/23 11:45:56;;;;;;;7.63;1.85;;;;;;;;;;5050037;28;20052;-81
2023/04/23 11:48:23;;;;;;;5.63;1.50;;;;;;;;;;5050691;28;20045;-81
2023/04/23 11:50:49;;;;;;;4.93;1.50;;;;;;;;;;5051290;28;20037;-81
2023/04/23 11:53:15;;;;;;;4.22;1.60;;;;;;;;;;5050516;28;20041;-81
2023/04/23 11:55:42;;;;;;;6.55;1.60;;;;;;;;;;5051409;28;20056;-81
2023/04/23 11:58:10;;;;;;;5.38;1.60;;;;;;;;;;5050320;28;20053;-81
2023/04/23 12:00:36;;;;;;;8.63;1.83;;;;;;;;;;5050335;28;20448;-80
2023/04/23 12:03:04;;;;;;;7.90;1.95;;;;;;;;;;5049127;28;20102;-80
2023/04/23 12:05:32;;;;;;;7.93;1.50;;;;;;;;;;5050463;28;20041;-81
2023/04/23 12:08:30;;;;;;;4.38;1.60;;;;;;;;;;5050649;28;20072;-81
2023/04/23 12:11:01;;;;;;;20.30;12.07;;;;;;;;;;5075540;28;20033;-80
2023/04/23 12:13:32;;;;;;;8.27;1.90;;;;;;;;;;5054401;28;20498;-80
2023/04/23 12:16:03;;;;;;;7.88;2.10;;;;;;;;;;5067702;28;20532;-81
2023/04/23 12:18:29;;;;;;;4.72;1.40;;;;;;;;;;5053917;28;20049;-81
2023/04/23 12:20:56;;;;;;;5.90;1.60;;;;;;;;;;5054611;28;20466;-81
2023/04/23 12:23:27;;;;;;;4.63;1.38;;;;;;;;;;5037653;28;20056;-81
2023/04/23 12:25:53;;;;;;;7.15;1.67;;;;;;;;;;5052884;28;20064;-80
2023/04/23 12:28:23;;;;;;;8.48;1.65;;;;;;;;;;5053887;28;20049;-81
2023/04/23 12:30:50;;;;;;;7.68;1.70;;;;;;;;;;5053774;28;20048;-81
2023/04/23 12:33:16;;;;;;;6.95;1.60;;;;;;;;;;5053842;28;20048;-81
2023/04/23 12:35:43;;;;;;;7.90;1.88;;;;;;;;;;5053479;28;20052;-81
2023/04/23 12:38:26;;;;;;;6.32;1.42;;;;;;;;;;5054423;28;20517;-80
2023/04/23 12:40:53;;;;;;;8.02;2.13;;;;;;;;;;5054425;28;20037;-81
2023/04/23 12:43:19;;;;;;;5.93;1.40;;;;;;;;;;5053347;28;20073;-81
2023/04/23 12:45:46;;;;;;;5.93;1.60;;;;;;;;;;5053177;28;20041;-81
2023/04/23 12:48:12;;;;;;;6.03;1.58;;;;;;;;;;5053320;28;20512;-81
2023/04/23 12:50:38;;;;;;;7.38;1.65;;;;;;;;;;5054660;28;20106;-81
2023/04/23 12:53:05;;;;;;;4.93;1.50;;;;;;;;;;5036319;28;20048;-81
2023/04/23 12:55:31;;;;;;;4.88;1.50;;;;;;;;;;5054717;28;20037;-81
2023/04/23 12:57:58;;;;;;;6.93;1.60;;;;;;;;;;5052819;28;20128;-81
2023/04/23 13:00:24;;;;;;;6.43;1.30;;;;;;;;;;5053465;28;20396;-81
2023/04/23 13:02:50;;;;;;;5.95;1.55;;;;;;;;;;5044504;28;20075;-81
2023/04/23 13:05:16;;;;;;;5.10;1.50;;;;;;;;;;5052950;28;20092;-81
2023/04/23 13:07:42;;;;;;;8.02;1.60;;;;;;;;;;5036283;28;20041;-81
2023/04/23 13:10:09;;;;;;;6.50;1.40;;;;;;;;;;5052548;28;20126;-81
2023/04/23 13:12:35;;;;;;;5.22;1.40;;;;;;;;;;5069614;28;20076;-81
2023/04/23 13:15:02;;;;;;;7.47;1.42;;;;;;;;;;5052392;28;20037;-81
2023/04/23 13:17:28;;;;;;;5.78;1.10;;;;;;;;;;5053078;28;20493;-81
2023/04/23 13:19:54;;;;;;;3.67;1.20;;;;;;;;;;5053501;28;20043;-81
2023/04/23 13:22:21;;;;;;;4.72;1.23;;;;;;;;;;5054243;28;20090;-81
2023/04/23 13:24:47;;;;;;;2.97;1.20;;;;;;;;;;5035986;28;20397;-81
2023/04/23 13:27:14;;;;;;;4.68;1.10;;;;;;;;;;5052074;28;20121;-81
2023/04/23 13:29:40;;;;;;;5.28;1.30;;;;;;;;;;5053917;28;20044;-81
2023/04/23 13:32:06;;;;;;;5.18;1.42;;;;;;;;;;5052106;28;20044;-81
2023/04/23 13:34:33;;;;;;;5.30;1.35;;;;;;;;;;5052279;28;20053;-81
2023/04/23 13:37:04;;;;;;;3.92;1.17;;;;;;;;;;5052183;28;20043;-81
2023/04/23 13:39:30;;;;;;;5.45;1.40;;;;;;;;;;5052415;28;20048;-81
2023/04/23 13:41:56;;;;;;;3.13;1.00;;;;;;;;;;5052234;28;20116;-81
2023/04/23 13:44:22;;;;;;;6.72;1.20;;;;;;;;;;5054006;28;20080;-81
2023/04/23 13:46:49;;;;;;;5.35;1.40;;;;;;;;;;5035362;28;20099;-81
2023/04/23 13:49:15;;;;;;;5.40;1.30;;;;;;;;;;5051854;28;20071;-81
2023/04/23 13:51:41;;;;;;;4.53;1.15;;;;;;;;;;5045318;28;20036;-81
2023/04/23 13:54:07;;;;;;;7.05;1.55;;;;;;;;;;5051950;28;20444;-81
2023/04/23 13:56:36;;;;;;;7.13;1.55;;;;;;;;;;5052204;28;20442;-81
2023/04/23 13:59:03;;;;;;;5.70;1.30;;;;;;;;;;5052973;28;20207;-81
2023/04/23 14:01:29;;;;;;;3.40;1.15;;;;;;;;;;5049889;28;20048;-81
2023/04/23 14:03:58;;;;;;;6.30;1.10;;;;;;;;;;5051720;28;20056;-81
2023/04/23 14:06:25;;;;;;;5.05;1.20;;;;;;;;;;5051621;28;20047;-81
2023/04/23 14:08:54;;;;;;;7.10;1.27;;;;;;;;;;5053278;28;20033;-81
2023/04/23 14:11:21;;;;;;;4.50;1.27;;;;;;;;;;5051327;28;20075;-81
2023/04/23 14:13:47;;;;;;;5.63;1.20;;;;;;;;;;5035227;28;20067;-81
2023/04/23 14:16:13;;;;;;;4.93;1.30;;;;;;;;;;5054213;28;20413;-81
2023/04/23 14:18:39;;;;;;;4.13;1.17;;;;;;;;;;5051632;28;20142;-81